Time;durP1;ratioP1;P1;durP2;ratioP2;P2;SDS_P1;SDS_P2;PMS_P1;PMS_P2;Temp;Humidity;BMP_temperature;BMP_pressure;BME280_temperature;BME280_humidity;BME280_pressure;Samples;Min_cycle;Max_cycle;Signal;HPM_P1;HPM_P2
2022/08/22 00:03:48;;;;;;;11.57;2.33;;;;;;;19.76;84.76;101488.59;20958450;28;20040;-60
2022/08/22 00:14:18;;;;;;;;;;;;;;;19.82;83.84;101492.50;20955726;28;20059;-60
2022/08/22 00:24:46;;;;;;;12.30;2.45;;;;;;;19.82;85.85;101484.56;20952081;28;19920;-61
2022/08/22 00:35:28;;;;;;;9.93;2.05;;;;;;;19.71;84.96;101484.72;20965690;28;20052;-60
2022/08/22 00:46:00;;;;;;;6.15;1.70;;;;;;;19.79;83.85;101488.34;20959241;28;20055;-61
2022/08/22 00:56:47;;;;;;;9.60;1.80;;;;;;;19.65;84.06;101490.56;20957713;28;20059;-61
2022/08/22 01:07:17;;;;;;;6.50;1.90;;;;;;;19.53;84.34;101481.09;20954197;28;20049;-60
2022/08/22 01:18:01;;;;;;;10.85;1.83;;;;;;;19.30;83.94;101482.38;20946895;28;20051;-61
2022/08/22 01:29:01;;;;;;;6.65;1.73;;;;;;;19.44;85.21;101492.53;20939117;28;20068;-61
2022/08/22 01:39:47;;;;;;;7.05;1.63;;;;;;;19.18;85.58;101496.69;20948821;28;20120;-61
2022/08/22 01:50:21;;;;;;;8.05;1.80;;;;;;;19.18;86.71;101495.84;20954263;28;20045;-61
2022/08/22 02:01:32;;;;;;;7.32;2.20;;;;;;;19.10;87.29;101504.44;20948207;28;20037;-61
2022/08/22 02:12:15;;;;;;;9.80;1.85;;;;;;;19.05;86.74;101496.09;20945080;28;20056;-60
2022/08/22 02:22:58;;;;;;;9.50;2.38;;;;;;;18.99;88.83;101504.56;20958414;28;20045;-61
2022/08/22 02:33:45;;;;;;;9.60;2.03;;;;;;;18.89;88.08;101489.63;20958779;28;20524;-60
2022/08/22 02:44:27;;;;;;;10.50;2.13;;;;;;;18.78;89.60;101487.94;20968398;28;20044;-60
2022/08/22 02:55:04;;;;;;;8.75;2.42;;;;;;;18.71;89.98;101494.75;20965323;28;20516;-60
2022/08/22 03:05:36;;;;;;;9.10;2.00;;;;;;;18.60;90.46;101489.56;20962244;28;20068;-61
2022/08/22 03:16:08;;;;;;;11.02;2.30;;;;;;;18.58;90.41;101486.22;20954187;28;20032;-61
2022/08/22 03:26:42;;;;;;;5.93;2.15;;;;;;;18.65;90.86;101482.06;20960482;28;20055;-61
2022/08/22 03:37:34;;;;;;;8.98;2.33;;;;;;;18.53;93.01;101477.03;20962555;28;20045;-61
2022/08/22 03:48:05;;;;;;;12.43;2.65;;;;;;;18.33;93.60;101479.72;20958711;28;20041;-63
2022/08/22 03:58:54;;;;;;;9.40;2.65;;;;;;;18.28;93.48;101492.47;20964417;28;20755;-60
2022/08/22 04:09:28;;;;;;;13.80;2.80;;;;;;;18.07;95.05;101505.66;20988803;28;20135;-61
2022/08/22 04:20:11;;;;;;;11.27;2.58;;;;;;;18.23;95.98;101499.94;20949684;28;20051;-61
2022/08/22 04:30:45;;;;;;;10.38;2.60;;;;;;;18.31;94.84;101502.78;20959839;28;20060;-61
2022/08/22 04:41:23;;;;;;;7.10;2.50;;;;;;;18.27;95.86;101501.34;20948411;28;20396;-61
2022/08/22 04:51:56;;;;;;;6.43;2.45;;;;;;;18.38;94.84;101512.69;20980442;28;20460;-62
2022/08/22 05:02:23;;;;;;;16.63;2.92;;;;;;;18.31;95.92;101515.97;20997549;28;20041;-62
2022/08/22 05:12:55;;;;;;;11.25;2.58;;;;;;;18.47;95.51;101515.38;20957430;28;20719;-61
2022/08/22 05:23:23;;;;;;;12.95;2.90;;;;;;;18.64;93.37;101517.38;20959310;28;20057;-61
2022/08/22 05:33:49;;;;;;;11.27;3.00;;;;;;;18.61;94.91;101515.00;20975428;28;20899;-60
2022/08/22 05:44:25;;;;;;;10.45;2.67;;;;;;;18.68;94.68;101523.25;20949619;28;20036;-60
2022/08/22 05:54:59;;;;;;;12.90;3.08;;;;;;;18.59;94.83;101532.78;20948237;28;20048;-61
2022/08/22 06:05:28;;;;;;;12.13;2.60;;;;;;;19.05;93.51;101538.38;20951712;28;20037;-62
2022/08/22 06:16:36;;;;;;;7.32;2.10;;;;;;;19.27;91.88;101546.09;20945989;28;20061;-61
2022/08/22 06:27:06;;;;;;;8.75;2.47;;;;;;;19.26;91.04;101555.00;20927585;28;20055;-62
2022/08/22 06:37:39;;;;;;;11.97;2.47;;;;;;;19.27;91.44;101554.03;20957471;28;20045;-62
2022/08/22 06:48:03;;;;;;;9.18;2.30;;;;;;;19.48;91.06;101563.53;20942867;28;20041;-63
2022/08/22 06:58:30;;;;;;;9.75;2.28;;;;;;;19.51;91.07;101562.41;20947928;28;20067;-63
2022/08/22 07:08:55;;;;;;;11.07;2.60;;;;;;;19.52;90.50;101569.38;20971135;28;20048;-63
2022/08/22 07:19:35;;;;;;;8.48;2.10;;;;;;;19.67;90.52;101573.28;20962067;28;20040;-62
2022/08/22 07:30:19;;;;;;;6.75;2.17;;;;;;;19.92;88.70;101572.75;20960693;28;20111;-61
2022/08/22 07:41:07;;;;;;;10.52;2.53;;;;;;;20.06;88.82;101578.47;20958139;28;20447;-62
2022/08/22 07:51:54;;;;;;;10.27;2.63;;;;;;;20.24;87.97;101578.56;20963668;28;20076;-62
2022/08/22 08:02:17;;;;;;;13.45;2.30;;;;;;;20.77;86.54;101578.72;20958867;28;20052;-61
2022/08/22 08:12:46;;;;;;;9.43;2.22;;;;;;;20.95;84.86;101571.69;20973296;28;20531;-62
2022/08/22 08:23:25;;;;;;;13.77;2.33;;;;;;;21.00;82.84;101552.69;20954335;28;20055;-62
2022/08/22 08:33:49;;;;;;;13.70;2.10;;;;;;;21.48;80.66;101546.09;20950930;28;20454;-63
2022/08/22 08:44:27;;;;;;;7.35;1.90;;;;;;;21.74;79.44;101539.06;20952626;28;20139;-62
2022/08/22 08:55:08;;;;;;;6.68;2.08;;;;;;;22.14;78.45;101539.38;20956251;28;20047;-63
2022/08/22 09:06:20;;;;;;;7.07;1.63;;;;;;;22.12;73.94;101538.72;20953536;28;20056;-61
2022/08/22 09:17:14;;;;;;;9.18;1.70;;;;;;;22.71;69.98;101528.97;20960273;28;20048;-64
2022/08/22 09:27:44;;;;;;;5.25;1.80;;;;;;;22.69;71.18;101517.66;20959789;28;20052;-61
2022/08/22 09:38:28;;;;;;;11.85;1.77;;;;;;;23.05;68.12;101519.94;20933293;28;20132;-62
2022/08/22 09:49:15;;;;;;;6.70;1.80;;;;;;;22.93;67.82;101515.91;20953807;28;20040;-62
2022/08/22 10:00:12;;;;;;;8.35;2.00;;;;;;;23.40;66.91;101501.09;20949298;28;20048;-62
2022/08/22 10:10:52;;;;;;;8.38;1.92;;;;;;;22.91;67.89;101504.59;20964495;28;20390;-62
2022/08/22 10:21:34;;;;;;;5.43;1.92;;;;;;;22.96;67.42;101499.66;20946081;28;20048;-62
2022/08/22 10:32:14;;;;;;;6.18;1.90;;;;;;;23.11;64.94;101498.06;20946889;28;20047;-62
2022/08/22 10:42:52;;;;;;;5.60;1.42;;;;;;;23.19;67.79;101490.06;20951496;28;20129;-62
2022/08/22 10:53:29;;;;;;;11.52;2.08;;;;;;;23.04;67.21;101491.66;20967781;28;20075;-62
2022/08/22 11:04:03;;;;;;;7.63;1.58;;;;;;;23.40;65.94;101482.47;20959362;28;20055;-62
2022/08/22 11:14:30;;;;;;;9.93;1.90;;;;;;;23.41;66.00;101478.81;20956748;28;20048;-62
2022/08/22 11:25:15;;;;;;;14.10;2.30;;;;;;;23.48;67.20;101474.47;20963131;28;20492;-63
2022/08/22 11:36:17;;;;;;;9.90;1.73;;;;;;;23.69;66.11;101474.81;20980046;28;20040;-62
2022/08/22 11:46:50;;;;;;;10.32;2.20;;;;;;;24.05;66.06;101470.81;20971977;28;20078;-62
2022/08/22 11:57:17;;;;;;;6.18;2.15;;;;;;;23.95;65.25;101467.50;20981124;28;20041;-62
2022/08/22 12:07:52;;;;;;;11.02;2.63;;;;;;;24.04;63.99;101466.47;20972690;28;20489;-63
2022/08/22 12:18:26;;;;;;;8.05;2.20;;;;;;;24.44;64.66;101460.06;20954702;28;20049;-63
2022/08/22 12:29:00;;;;;;;9.35;2.13;;;;;;;24.52;63.94;101449.38;20956452;28;20140;-63
2022/08/22 12:39:52;;;;;;;9.35;2.15;;;;;;;24.54;62.79;101434.03;20954444;28;20082;-63
2022/08/22 12:50:37;;;;;;;9.57;1.70;;;;;;;24.74;62.77;101424.56;20956346;28;20044;-63
2022/08/22 13:01:03;;;;;;;7.28;1.95;;;;;;;25.03;62.09;101422.09;20954166;28;20048;-62
2022/08/22 13:11:34;;;;;;;8.82;1.80;;;;;;;24.49;59.85;101407.03;20954397;28;20099;-62
2022/08/22 13:22:02;;;;;;;;;;;;;;;24.77;60.99;101402.88;20954374;28;20051;-62
2022/08/22 13:32:35;;;;;;;6.10;2.00;;;;;;;24.69;60.88;101392.28;20953241;28;19935;-62
2022/08/22 13:43:09;;;;;;;9.15;2.10;;;;;;;24.29;61.35;101385.47;20934816;28;20080;-61
2022/08/22 13:54:11;;;;;;;8.38;2.20;;;;;;;24.47;62.34;101409.06;20954252;28;20048;-63
2022/08/22 14:04:39;;;;;;;4.55;2.05;;;;;;;24.49;62.12;101383.03;20923666;28;20059;-62
2022/08/22 14:15:05;;;;;;;7.40;1.80;;;;;;;24.54;60.42;101370.03;20935402;28;20075;-61
2022/08/22 14:25:32;;;;;;;5.72;1.77;;;;;;;24.49;61.19;101367.03;20948501;28;20049;-61
2022/08/22 14:35:59;;;;;;;5.75;1.60;;;;;;;24.51;62.83;101365.03;20951990;28;20055;-61
2022/08/22 14:46:48;;;;;;;5.75;1.60;;;;;;;24.73;62.98;101353.59;20949830;28;20074;-62
2022/08/22 14:57:13;;;;;;;6.63;1.80;;;;;;;24.94;61.85;101356.44;20948875;28;20043;-63
2022/08/22 15:07:41;;;;;;;5.38;1.70;;;;;;;24.73;59.35;101342.91;20943947;28;20048;-62
2022/08/22 15:18:16;;;;;;;6.63;2.15;;;;;;;24.77;60.36;101338.06;20946478;28;20126;-63
2022/08/22 15:28:38;;;;;;;3.10;1.48;;;;;;;24.79;59.33;101328.84;20947265;28;20045;-64
2022/08/22 15:39:31;;;;;;;7.43;1.70;;;;;;;24.88;57.88;101325.13;20947569;28;20455;-64
2022/08/22 15:49:59;;;;;;;8.68;2.00;;;;;;;24.84;58.80;101312.31;20941831;28;20126;-61
2022/08/22 16:00:31;;;;;;;4.85;1.63;;;;;;;24.85;58.38;101312.16;20946611;28;20041;-64
2022/08/22 16:11:14;;;;;;;5.47;1.65;;;;;;;24.93;57.57;101298.72;20944714;28;20048;-64
2022/08/22 16:21:38;;;;;;;4.30;1.45;;;;;;;25.12;57.77;101300.94;20946316;28;20048;-61
2022/08/22 16:32:03;;;;;;;9.60;1.58;;;;;;;25.12;57.73;101300.94;20941181;28;20052;-63
2022/08/22 16:42:45;;;;;;;3.15;1.70;;;;;;;25.27;55.88;101288.44;20969435;28;20071;-62
2022/08/22 16:53:31;;;;;;;6.18;1.48;;;;;;;25.22;57.05;101290.81;20962177;28;20055;-63
2022/08/22 17:04:02;;;;;;;;;;;;;;;24.98;57.35;101288.34;20911394;28;20528;-62
2022/08/22 17:14:53;;;;;;;5.25;1.63;;;;;;;25.02;58.01;101289.66;20891251;28;20396;-62
2022/08/22 17:25:21;;;;;;;4.53;1.60;;;;;;;24.93;56.42;101290.72;20877178;28;20394;-62
2022/08/22 17:36:16;;;;;;;7.50;1.45;;;;;;;24.73;56.84;101288.72;20874148;28;20055;-62
2022/08/22 17:46:54;;;;;;;3.90;1.40;;;;;;;24.55;58.99;101294.34;20886253;28;20037;-63
2022/08/22 17:57:43;;;;;;;6.05;2.08;;;;;;;24.39;60.83;101299.75;20869722;28;20047;-64
2022/08/22 18:08:32;;;;;;;3.93;1.57;;;;;;;24.14;62.95;101297.41;20873205;28;20049;-63
2022/08/22 18:19:23;;;;;;;6.07;1.77;;;;;;;23.96;65.09;101314.63;20817712;28;20797;-63
2022/08/22 18:30:14;;;;;;;6.43;1.65;;;;;;;23.80;65.53;101325.34;20813026;28;20072;-62
2022/08/22 18:40:41;;;;;;;5.95;1.80;;;;;;;23.72;65.32;101320.03;20804889;28;20053;-62
2022/08/22 18:51:26;;;;;;;5.85;2.10;;;;;;;23.69;66.39;101315.03;20816438;28;20041;-63
2022/08/22 19:02:10;;;;;;;10.50;2.25;;;;;;;23.54;68.10;101322.06;20812351;28;20045;-62
2022/08/22 19:12:52;;;;;;;8.32;2.10;;;;;;;23.48;69.14;101330.72;20816456;28;20045;-63
2022/08/22 19:23:36;;;;;;;6.75;1.92;;;;;;;23.32;70.64;101340.56;20818514;28;20834;-62
2022/08/22 19:34:18;;;;;;;5.13;1.85;;;;;;;23.12;72.13;101336.56;20816216;28;20053;-62
2022/08/22 19:44:42;;;;;;;8.55;2.30;;;;;;;22.82;73.07;101330.06;20801595;28;20099;-63
2022/08/22 19:55:38;;;;;;;8.93;2.15;;;;;;;22.84;73.41;101327.22;20826847;28;20568;-63
2022/08/22 20:06:25;;;;;;;7.07;2.15;;;;;;;22.82;73.65;101327.41;20836340;28;20052;-61
2022/08/22 20:17:41;;;;;;;5.05;1.92;;;;;;;22.75;74.53;101326.38;20830999;28;20060;-61
2022/08/22 20:28:07;;;;;;;5.25;1.92;;;;;;;22.54;74.78;101318.06;20815348;28;20050;-61
2022/08/22 20:38:40;;;;;;;4.15;1.70;;;;;;;22.50;74.59;101308.75;20825012;28;20140;-61
2022/08/22 20:49:19;;;;;;;6.72;1.90;;;;;;;22.54;74.71;101306.59;20827459;28;20103;-62
2022/08/22 20:59:58;;;;;;;9.95;2.08;;;;;;;22.23;75.19;101297.50;20831341;28;20052;-62
2022/08/22 21:21:16;;;;;;;8.27;2.40;;;;;;;22.13;76.17;101311.91;20826983;28;20042;-62
2022/08/22 21:32:10;;;;;;;5.18;1.95;;;;;;;21.90;76.93;101305.53;20829108;28;20057;-61
2022/08/22 21:42:38;;;;;;;5.93;2.33;;;;;;;21.74;77.38;101310.75;20816381;28;20136;-62
2022/08/22 21:53:06;;;;;;;5.13;2.20;;;;;;;21.45;79.17;101310.22;20853409;28;20048;-62
2022/08/22 22:03:37;;;;;;;8.15;2.28;;;;;;;21.50;79.06;101297.34;20845612;28;20048;-62
2022/08/22 22:13:58;;;;;;;7.55;2.50;;;;;;;21.44;77.97;101298.78;20828369;28;20416;-61
2022/08/22 22:24:20;;;;;;;5.95;2.65;;;;;;;21.35;79.13;101314.81;20848326;28;20041;-61
2022/08/22 22:34:42;;;;;;;4.63;2.00;;;;;;;21.37;77.21;101312.84;20822518;28;20057;-62
2022/08/22 22:45:04;;;;;;;5.38;2.08;;;;;;;21.22;77.86;101308.25;20832194;28;20502;-62
2022/08/22 22:55:26;;;;;;;3.63;2.05;;;;;;;21.12;78.54;101310.16;20838386;28;20049;-62
2022/08/22 23:05:48;;;;;;;4.43;2.13;;;;;;;21.06;78.55;101308.97;20826361;28;20053;-63
2022/08/22 23:16:12;;;;;;;5.68;2.08;;;;;;;21.02;78.59;101315.56;20833539;28;20045;-61
2022/08/22 23:26:35;;;;;;;9.30;2.20;;;;;;;21.03;78.28;101314.56;20835704;28;20042;-62
2022/08/22 23:36:58;;;;;;;5.90;2.10;;;;;;;21.08;76.79;101322.06;20826226;28;20076;-61
2022/08/22 23:47:20;;;;;;;5.18;1.75;;;;;;;20.87;77.31;101319.72;20843345;28;20059;-62
2022/08/22 23:57:41;;;;;;;4.93;2.00;;;;;;;20.99;76.40;101321.16;20830135;28;20057;-61
